WetterOnline ( https://www.wetteronline.de )

Wetter aktuell Salzwedel

Aktuelles Wetter: Lüchow (18m)

6-stündlich | Neueste Meldungen
Ortszeit Temperatur Wetter
Mo, 03.10. 14:00 16.4° C wolkig
Mo, 03.10. 8:00 10.1° C wolkenlos
Mo, 03.10. 2:00 10.7° C wolkenlos
So, 02.10. 20:00 12.8° C wolkenlos
So, 02.10. 14:00 12.8° C leicht bewölkt
So, 02.10. 8:00 10.9° C leicht bewölkt
So, 02.10. 2:00 11.2° C wolkenlos
Sa, 01.10. 20:00 11.9° C leicht bewölkt
Ortszeit Temperatur Wetter
Mo, 03.10. 17:00 15.8° C bedeckt
Mo, 03.10. 16:50 15.8° C bedeckt
Mo, 03.10. 16:40 15.8° C bedeckt
Mo, 03.10. 16:30 15.9° C bedeckt
Mo, 03.10. 16:20 15.9° C bedeckt
Mo, 03.10. 16:10 15.6° C bedeckt
Mo, 03.10. 16:00 15.1° C Sprühregen
Mo, 03.10. 15:30 15.7° C bewölkt
Mo, 03.10. 15:00 15.5° C bedeckt
Mo, 03.10. 14:30 16.5° C bewölkt
Mo, 03.10. 14:00 16.4° C wolkig
Ortszeit Relative Feuchte Sichtweite
Mo, 03.10. 14:00 69% 45 km
Mo, 03.10. 8:00 94% 29 km
Mo, 03.10. 2:00 92% 28 km
So, 02.10. 20:00 77% 35 km
So, 02.10. 14:00 86% 65 km
So, 02.10. 8:00 91% 30 km
So, 02.10. 2:00 90% 30 km
Sa, 01.10. 20:00 92% 65 km
Ortszeit Relative Feuchte Sichtweite
Mo, 03.10. 17:00 75% 45 km
Mo, 03.10. 16:50 75% -
Mo, 03.10. 16:40 75% -
Mo, 03.10. 16:30 76% 50 km
Mo, 03.10. 16:20 76% -
Mo, 03.10. 16:10 78% -
Mo, 03.10. 16:00 81% 40 km
Mo, 03.10. 15:30 77% 50 km
Mo, 03.10. 15:00 77% 45 km
Mo, 03.10. 14:30 69% 45 km
Mo, 03.10. 14:00 69% 45 km
Ortszeit Niederschlagsmenge Niederschlagsart
Mo, 03.10. 14:00 0.1 l/m2 in 6 Std. Regen
Mo, 03.10. 8:00 0.0 l/m2 in 12 Std. -
Mo, 03.10. 2:00 0.0 l/m2 in 6 Std. -
So, 02.10. 20:00 2 l/m2 in 12 Std. -
So, 02.10. 14:00 2 l/m2 in 6 Std. Regen
So, 02.10. 8:00 0.1 l/m2 in 12 Std. Regen
So, 02.10. 2:00 0.1 l/m2 in 6 Std. Sprühregen
Sa, 01.10. 20:00 4 l/m2 in 12 Std. Regen
Ortszeit Niederschlagsmenge Niederschlagsart
Mo, 03.10. 17:00 <0.05 l/m2 in 1 Std. Sprühregen
Mo, 03.10. 16:50 keine Meldung -
Mo, 03.10. 16:40 keine Meldung -
Mo, 03.10. 16:30 <0.05 l/m2 in 1 Std. Schnee
Mo, 03.10. 16:20 keine Meldung -
Mo, 03.10. 16:10 keine Meldung -
Mo, 03.10. 16:00 <0.05 l/m2 in 1 Std. Sprühregen
Mo, 03.10. 15:30 0.0 l/m2 in 1 Std. -
Mo, 03.10. 15:00 <0.05 l/m2 in 1 Std. Sprühregen
Mo, 03.10. 14:30 <0.05 l/m2 in 1 Std. -
Mo, 03.10. 14:00 <0.05 l/m2 in 1 Std. Regen
Ortszeit Stärke Spitze Richtung
km/h Bft. km/h Grad Sektor
Mo, 03.10. 14:00 14 3 32 300° NW
Mo, 03.10. 8:00 7 2 22 260° W
Mo, 03.10. 2:00 7 2 20 270° W
So, 02.10. 20:00 7 2 28 290° W
So, 02.10. 14:00 4 1 40 280° W
So, 02.10. 8:00 11 2 25 240° SW
So, 02.10. 2:00 14 3 29 240° SW
Sa, 01.10. 20:00 11 2 36 240° SW
Ortszeit Stärke Spitze Richtung
km/h Bft. km/h Grad Sektor
Mo, 03.10. 17:00 11 2 28 310° NW
Mo, 03.10. 16:50 11 2 - 310° NW
Mo, 03.10. 16:40 11 2 - 310° NW
Mo, 03.10. 16:30 11 2 25 300° NW
Mo, 03.10. 16:20 11 2 - 300° NW
Mo, 03.10. 16:10 11 2 - 290° W
Mo, 03.10. 16:00 9 2 28 280° W
Mo, 03.10. 15:30 11 2 29 300° NW
Mo, 03.10. 15:00 11 2 32 270° W
Mo, 03.10. 14:30 11 2 32 280° W
Mo, 03.10. 14:00 14 3 32 300° NW
Ortszeit Untergrenze Bedeckung Gattung
total tief tief mittel hoch
Mo, 03.10. 14:00 810 m 5/8 5/8 - - -
Mo, 03.10. 8:00 - 0/8 0/8 - - -
Mo, 03.10. 2:00 - 0/8 0/8 - - -
So, 02.10. 20:00 - 0/8 0/8 - - -
So, 02.10. 14:00 1380 m 4/8 3/8 - - -
So, 02.10. 8:00 330 m 3/8 1/8 - - -
So, 02.10. 2:00 - 0/8 0/8 - - -
Sa, 01.10. 20:00 1500 m 3/8 3/8 - - -
Ortszeit Bedeckungsgrad in Achtel und Wolkenuntergrenze
Mo, 03.10. 17:00 1(750m) 8(1800m)
Mo, 03.10. 16:50 1(750m) 8(1800m)
Mo, 03.10. 16:40 8
Mo, 03.10. 16:30 8(1800m)
Mo, 03.10. 16:20 8(1800m)
Mo, 03.10. 16:10 8
Mo, 03.10. 16:00 1(720m) 7(1500m) 8(1800m)
Mo, 03.10. 15:30 4(930m) 5(1230m) 7(2100m)
Mo, 03.10. 15:00 2(900m) 7(1500m) 8(2100m)
Mo, 03.10. 14:30 2(870m) 6(1410m) 7(2100m)
Mo, 03.10. 14:00 1(810m) 5(1500m)
Ortszeit Luftdruck NN (hPa) Tendenz (hPa in 3 Std.)
Mo, 03.10. 14:00 1023 - 0,1
Mo, 03.10. 8:00 1023 + 1,3
Mo, 03.10. 2:00 1020 + 1,3
So, 02.10. 20:00 1017 + 2,3
So, 02.10. 14:00 1014 + 0,4
So, 02.10. 8:00 1012 + 0,7
So, 02.10. 2:00 1011 + 2,1
Sa, 01.10. 20:00 1006 + 3,0
Ortszeit Luftdruck NN (hPa) Tendenz (hPa in 3 Std.)
Mo, 03.10. 17:00 1023 - 0,2
Mo, 03.10. 16:50 1023 keine Meldung
Mo, 03.10. 16:40 1023 keine Meldung
Mo, 03.10. 16:30 1023 - 0,3
Mo, 03.10. 16:20 1023 keine Meldung
Mo, 03.10. 16:10 1023 keine Meldung
Mo, 03.10. 16:00 1023 - 0,2
Mo, 03.10. 15:30 1023 - 0,2
Mo, 03.10. 15:00 1023 - 0,3
Mo, 03.10. 14:30 1023 - 0,4
Mo, 03.10. 14:00 1023 - 0,1
Ortszeit Schneehöhe (cm)
Mo, 03.10. 14:00 0
Mo, 03.10. 8:00 0
Mo, 03.10. 2:00 0
So, 02.10. 20:00 0
So, 02.10. 14:00 0
So, 02.10. 8:00 0
So, 02.10. 2:00 0
Sa, 01.10. 20:00 0
Ortszeit Schneehöhe (cm)
Mo, 03.10. 17:00 0
Mo, 03.10. 16:50 0
Mo, 03.10. 16:40 0
Mo, 03.10. 16:30 0
Mo, 03.10. 16:20 0
Mo, 03.10. 16:10 0
Mo, 03.10. 16:00 0
Mo, 03.10. 15:30 0
Mo, 03.10. 15:00 0
Mo, 03.10. 14:30 0
Mo, 03.10. 14:00 0
Link zu dieser Seite / Seite empfehlen

Das Wetter in ...